createdAt,value
2023-02-09T00:01:26.473Z,8.37
2023-02-09T00:03:53.587Z,8.27
2023-02-09T00:06:22.502Z,8.70
2023-02-09T00:08:49.836Z,8.38
2023-02-09T00:11:42.845Z,8.43
2023-02-09T00:14:11.121Z,8.83
2023-02-09T00:16:38.113Z,8.70
2023-02-09T00:19:05.092Z,8.18
2023-02-09T00:21:31.848Z,9.00
2023-02-09T00:23:59.291Z,8.98
2023-02-09T00:26:26.292Z,8.70
2023-02-09T00:28:53.093Z,8.43
2023-02-09T00:31:20.120Z,8.57
2023-02-09T00:33:47.159Z,8.35
2023-02-09T00:36:15.420Z,9.00
2023-02-09T00:38:43.540Z,8.80
2023-02-09T00:41:11.789Z,9.00
2023-02-09T00:43:39.135Z,8.57
2023-02-09T00:46:05.999Z,8.60
2023-02-09T00:48:33.225Z,9.40
2023-02-09T00:51:00.632Z,9.03
2023-02-09T00:53:27.780Z,8.95
2023-02-09T00:55:54.555Z,9.20
2023-02-09T00:58:21.427Z,9.10
2023-02-09T01:04:37.495Z,8.53
2023-02-09T01:07:04.256Z,8.90
2023-02-09T01:09:31.209Z,9.27
2023-02-09T01:11:58.010Z,8.85
2023-02-09T01:14:25.030Z,8.90
2023-02-09T01:16:51.906Z,8.77
2023-02-09T01:19:18.800Z,9.00
2023-02-09T01:21:48.438Z,8.95
2023-02-09T01:24:15.652Z,9.00
2023-02-09T01:26:42.645Z,9.40
2023-02-09T01:29:16.410Z,9.37
2023-02-09T01:31:43.920Z,9.43
2023-02-09T01:34:13.841Z,9.07
2023-02-09T01:36:40.843Z,8.77
2023-02-09T01:39:09.593Z,8.82
2023-02-09T01:41:36.544Z,9.03
2023-02-09T01:44:06.506Z,9.50
2023-02-09T01:46:36.203Z,9.45
2023-02-09T01:49:10.333Z,9.50
2023-02-09T01:51:43.185Z,9.18
2023-02-09T01:54:14.831Z,8.57
2023-02-09T01:56:45.834Z,9.20
2023-02-09T01:59:14.485Z,9.02
2023-02-09T02:01:42.027Z,8.65
2023-02-09T02:04:08.856Z,9.10
2023-02-09T02:06:36.234Z,9.07
2023-02-09T02:09:14.830Z,8.07
2023-02-09T02:11:44.437Z,8.30
2023-02-09T02:14:31.078Z,8.23
2023-02-09T02:17:03.741Z,8.63
2023-02-09T02:20:05.428Z,8.63
2023-02-09T02:22:50.917Z,8.63
2023-02-09T02:25:28.849Z,8.45
2023-02-09T02:28:04.377Z,8.85
2023-02-09T02:31:08.527Z,8.10
2023-02-09T02:33:44.223Z,8.60
2023-02-09T02:36:33.884Z,8.65
2023-02-09T02:39:13.978Z,8.50
2023-02-09T02:42:09.392Z,8.27
2023-02-09T02:44:41.271Z,9.15
2023-02-09T02:47:13.774Z,8.10
2023-02-09T02:49:46.128Z,8.70
2023-02-09T02:52:13.054Z,9.13
2023-02-09T02:54:44.945Z,8.85
2023-02-09T02:57:19.235Z,9.25
2023-02-09T02:59:52.136Z,9.10
2023-02-09T03:02:29.110Z,9.40
2023-02-09T03:04:58.081Z,8.85
2023-02-09T03:07:26.150Z,9.05
2023-02-09T03:09:55.399Z,8.90
2023-02-09T03:12:49.673Z,8.67
2023-02-09T03:15:34.004Z,8.15
2023-02-09T03:18:10.806Z,8.48
2023-02-09T03:20:57.928Z,8.27
2023-02-09T03:23:59.313Z,8.98
2023-02-09T03:26:30.923Z,8.70
2023-02-09T03:28:59.233Z,8.75
2023-02-09T03:31:28.145Z,8.50
2023-02-09T03:33:57.612Z,9.00
2023-02-09T03:36:25.801Z,9.25
2023-02-09T03:38:52.526Z,9.20
2023-02-09T03:41:19.271Z,9.02
2023-02-09T03:44:04.466Z,9.18
2023-02-09T03:46:34.910Z,8.43
2023-02-09T03:49:02.370Z,9.13
2023-02-09T03:51:29.115Z,8.80
2023-02-09T03:53:55.867Z,9.15
2023-02-09T03:56:24.860Z,9.25
2023-02-09T03:58:51.937Z,8.88
2023-02-09T04:01:18.957Z,8.50
2023-02-09T04:03:45.739Z,8.63
2023-02-09T04:06:13.519Z,8.65
2023-02-09T04:08:40.696Z,8.20
2023-02-09T04:11:07.405Z,8.68
2023-02-09T04:13:34.511Z,9.18
2023-02-09T04:16:01.279Z,8.50
2023-02-09T04:18:28.057Z,8.57
2023-02-09T04:20:54.967Z,7.97
2023-02-09T04:23:21.683Z,8.73
2023-02-09T04:25:48.462Z,8.32
2023-02-09T04:28:15.316Z,7.90
2023-02-09T04:30:43.884Z,8.20
2023-02-09T04:33:13.583Z,8.93
2023-02-09T04:35:40.344Z,8.07
2023-02-09T04:38:07.077Z,9.10
2023-02-09T04:40:33.841Z,8.03
2023-02-09T04:43:00.672Z,8.57
2023-02-09T04:45:27.610Z,8.80
2023-02-09T04:47:54.623Z,8.90
2023-02-09T04:50:21.438Z,8.68
2023-02-09T04:52:48.148Z,8.13
2023-02-09T04:55:15.025Z,8.18
2023-02-09T04:58:00.626Z,8.13
2023-02-09T05:00:27.383Z,8.05
2023-02-09T05:02:55.067Z,8.38
2023-02-09T05:05:21.845Z,8.30
2023-02-09T05:07:48.714Z,8.30
2023-02-09T05:10:15.648Z,8.27
2023-02-09T05:12:42.510Z,8.70
2023-02-09T05:15:10.048Z,8.13
2023-02-09T05:17:36.723Z,8.53
2023-02-09T05:20:03.694Z,8.13
2023-02-09T05:22:30.504Z,8.18
2023-02-09T05:24:57.283Z,7.63
2023-02-09T05:27:24.102Z,8.00
2023-02-09T05:29:50.899Z,7.60
2023-02-09T05:32:17.732Z,7.47
2023-02-09T05:34:44.534Z,7.65
2023-02-09T05:37:11.268Z,7.82
2023-02-09T05:39:37.951Z,7.88
2023-02-09T05:42:16.774Z,7.17
2023-02-09T05:44:46.001Z,7.80
2023-02-09T05:47:13.764Z,7.85
2023-02-09T05:49:40.473Z,8.25
2023-02-09T05:52:07.741Z,8.00
2023-02-09T05:54:34.645Z,8.30
2023-02-09T05:57:01.942Z,7.25
2023-02-09T05:59:28.710Z,8.60
2023-02-09T06:01:55.490Z,8.35
2023-02-09T06:04:22.356Z,8.38
2023-02-09T06:06:49.287Z,8.00
2023-02-09T06:09:15.970Z,8.50
2023-02-09T06:11:42.677Z,7.90
2023-02-09T06:14:09.651Z,7.47
2023-02-09T06:16:36.835Z,8.30
2023-02-09T06:19:03.772Z,8.60
2023-02-09T06:21:30.560Z,8.10
2023-02-09T06:23:57.350Z,7.90
2023-02-09T06:26:24.259Z,7.35
2023-02-09T06:28:51.006Z,7.30
2023-02-09T06:31:17.858Z,7.77
2023-02-09T06:33:44.717Z,7.47
2023-02-09T06:36:14.562Z,8.00
2023-02-09T06:38:41.276Z,8.23
2023-02-09T06:41:08.143Z,8.02
2023-02-09T06:43:43.105Z,7.83
2023-02-09T06:46:11.882Z,7.60
2023-02-09T06:48:39.750Z,8.10
2023-02-09T06:51:11.784Z,7.40
2023-02-09T06:53:47.825Z,7.30
2023-02-09T06:56:14.631Z,7.47
2023-02-09T06:58:42.217Z,7.50
2023-02-09T07:01:11.965Z,7.45
2023-02-09T07:03:39.374Z,7.10
2023-02-09T07:06:11.456Z,7.70
2023-02-09T07:08:38.422Z,7.70
2023-02-09T07:11:07.603Z,6.85
2023-02-09T07:13:34.998Z,7.38
2023-02-09T07:16:03.891Z,7.43
2023-02-09T07:21:20.202Z,6.90
2023-02-09T07:23:47.880Z,6.70
2023-02-09T07:26:17.852Z,7.35
2023-02-09T07:28:45.403Z,5.88
2023-02-09T07:31:18.772Z,7.30
2023-02-09T07:33:49.749Z,7.07
2023-02-09T07:36:19.369Z,7.47
2023-02-09T07:38:52.439Z,7.38
2023-02-09T07:41:29.897Z,7.53
2023-02-09T07:43:58.156Z,7.85
2023-02-09T07:46:25.776Z,7.60
2023-02-09T07:48:53.280Z,7.10
2023-02-09T07:54:14.361Z,7.70
2023-02-09T07:56:42.015Z,7.78
2023-02-09T07:59:10.515Z,7.90
2023-02-09T08:01:38.859Z,7.63
2023-02-09T08:04:06.290Z,7.57
2023-02-09T08:06:43.324Z,7.50
2023-02-09T08:09:13.132Z,8.02
2023-02-09T08:11:52.981Z,8.17
2023-02-09T08:14:27.118Z,7.80
2023-02-09T08:17:18.613Z,7.80
2023-02-09T08:19:56.232Z,7.32
2023-02-09T08:22:25.424Z,8.68
2023-02-09T08:24:53.073Z,7.43
2023-02-09T08:27:21.452Z,7.22
2023-02-09T08:29:49.277Z,7.95
2023-02-09T08:32:16.265Z,7.90
2023-02-09T08:34:46.316Z,8.10
2023-02-09T08:37:13.125Z,7.63
2023-02-09T08:39:39.949Z,8.05
2023-02-09T08:42:06.789Z,7.90
2023-02-09T08:44:34.015Z,7.85
2023-02-09T08:47:00.982Z,7.97
2023-02-09T08:49:28.442Z,8.37
2023-02-09T08:51:55.199Z,8.05
2023-02-09T08:54:23.379Z,8.18
2023-02-09T08:56:50.082Z,8.30
2023-02-09T08:59:19.997Z,8.30
2023-02-09T09:01:47.040Z,8.20
2023-02-09T09:04:14.402Z,7.93
2023-02-09T09:06:41.428Z,8.20
2023-02-09T09:09:08.417Z,8.73
2023-02-09T09:11:36.449Z,8.40
2023-02-09T09:14:03.224Z,8.23
2023-02-09T09:16:30.346Z,8.38
2023-02-09T09:18:57.330Z,8.77
2023-02-09T09:21:24.763Z,8.50
2023-02-09T09:23:51.515Z,8.75
2023-02-09T09:26:18.424Z,8.90
2023-02-09T09:28:51.134Z,8.80
2023-02-09T09:31:19.202Z,9.13
2023-02-09T09:33:46.340Z,8.20
2023-02-09T09:36:14.795Z,8.60
2023-02-09T09:38:41.808Z,8.53
2023-02-09T09:41:21.247Z,8.27
2023-02-09T09:43:51.253Z,9.35
2023-02-09T09:46:22.097Z,9.18
2023-02-09T09:48:54.844Z,8.98
2023-02-09T09:51:36.590Z,8.23
2023-02-09T09:54:06.381Z,8.70
2023-02-09T09:56:33.796Z,10.27
2023-02-09T09:59:01.860Z,8.68
2023-02-09T10:01:32.245Z,9.63
2023-02-09T10:04:06.203Z,10.03
2023-02-09T10:06:36.688Z,10.00
2023-02-09T10:09:08.079Z,9.25
2023-02-09T10:11:52.952Z,9.60
2023-02-09T10:14:19.679Z,9.85
2023-02-09T10:16:46.510Z,9.23
2023-02-09T10:19:26.275Z,9.40
2023-02-09T10:21:54.659Z,10.10
2023-02-09T10:24:34.659Z,9.27
2023-02-09T10:27:08.332Z,9.13
2023-02-09T10:29:35.955Z,9.70
2023-02-09T10:32:11.711Z,10.93
2023-02-09T10:34:38.563Z,9.82
2023-02-09T10:37:22.290Z,9.63
2023-02-09T10:40:15.776Z,9.82
2023-02-09T10:43:22.545Z,9.40
2023-02-09T10:45:58.582Z,9.77
2023-02-09T10:48:27.367Z,8.70
2023-02-09T10:51:28.913Z,9.98
2023-02-09T10:53:55.699Z,9.32
2023-02-09T10:56:25.961Z,10.73
2023-02-09T10:59:16.960Z,10.27
2023-02-09T11:01:55.509Z,11.05
2023-02-09T11:04:25.411Z,10.13
2023-02-09T11:06:59.964Z,10.82
2023-02-09T11:09:40.320Z,11.00
2023-02-09T11:12:11.759Z,10.48
2023-02-09T11:14:39.450Z,9.95
2023-02-09T11:17:17.510Z,10.23
2023-02-09T11:20:05.287Z,10.30
2023-02-09T11:22:50.824Z,10.50
2023-02-09T11:25:46.989Z,10.07
2023-02-09T11:28:38.566Z,10.50
2023-02-09T11:31:30.042Z,9.75
2023-02-09T11:34:06.192Z,10.82
2023-02-09T11:36:51.511Z,12.63
2023-02-09T11:39:38.302Z,11.13
2023-02-09T11:42:33.369Z,11.48
2023-02-09T11:45:11.673Z,12.95
2023-02-09T11:47:46.456Z,11.98
2023-02-09T11:50:32.039Z,11.10
2023-02-09T11:53:19.711Z,11.57
2023-02-09T11:56:02.053Z,11.35
2023-02-09T11:58:42.864Z,15.82
2023-02-09T12:01:18.831Z,14.35
2023-02-09T12:03:55.950Z,12.43
2023-02-09T12:06:23.975Z,15.15
2023-02-09T12:09:02.144Z,13.55
2023-02-09T12:11:45.532Z,12.35
2023-02-09T12:14:17.232Z,12.50
2023-02-09T12:16:48.775Z,12.67
2023-02-09T12:19:30.995Z,12.02
2023-02-09T12:21:58.347Z,12.73
2023-02-09T12:24:39.407Z,12.20
2023-02-09T12:27:25.794Z,12.15
2023-02-09T12:29:52.645Z,11.73
2023-02-09T12:32:41.587Z,11.77
2023-02-09T12:35:39.608Z,12.52
2023-02-09T12:38:17.833Z,12.38
2023-02-09T12:41:05.145Z,13.50
2023-02-09T12:43:33.947Z,12.93
2023-02-09T12:46:31.798Z,12.75
2023-02-09T12:49:01.818Z,13.27
2023-02-09T12:51:55.811Z,12.85
2023-02-09T12:54:41.354Z,12.88
2023-02-09T12:57:18.110Z,12.80
2023-02-09T12:59:51.118Z,12.25
2023-02-09T13:02:49.833Z,12.63
2023-02-09T13:05:25.154Z,13.98
2023-02-09T13:08:10.799Z,13.55
2023-02-09T13:10:46.995Z,14.10
2023-02-09T13:13:16.616Z,13.95
2023-02-09T13:16:14.414Z,14.15
2023-02-09T13:19:02.493Z,17.30
2023-02-09T13:21:57.073Z,14.93
2023-02-09T13:24:41.762Z,15.67
2023-02-09T13:27:20.400Z,17.13
2023-02-09T13:30:01.844Z,16.17
2023-02-09T13:32:58.239Z,16.05
2023-02-09T13:35:32.735Z,16.38
2023-02-09T13:38:04.774Z,19.53
2023-02-09T13:40:35.217Z,16.77
2023-02-09T13:43:18.785Z,15.73
2023-02-09T13:45:55.286Z,15.30
2023-02-09T13:48:41.766Z,15.32
2023-02-09T13:51:20.758Z,20.10
2023-02-09T13:54:03.463Z,21.67
2023-02-09T13:56:40.333Z,16.75
2023-02-09T13:59:07.128Z,17.42
2023-02-09T14:04:26.935Z,16.50
2023-02-09T14:07:09.172Z,15.48
2023-02-09T14:10:00.200Z,15.63
2023-02-09T14:12:53.560Z,15.32
2023-02-09T14:16:00.742Z,15.05
2023-02-09T14:18:32.088Z,15.20
2023-02-09T14:21:16.490Z,15.25
2023-02-09T14:23:46.729Z,14.82
2023-02-09T14:26:22.635Z,14.65
2023-02-09T14:29:06.526Z,15.02
2023-02-09T14:31:36.082Z,15.00
2023-02-09T14:34:05.130Z,15.63
2023-02-09T14:36:35.895Z,15.75
2023-02-09T14:39:20.006Z,15.60
2023-02-09T14:41:57.535Z,17.42
2023-02-09T14:44:25.336Z,16.27
2023-02-09T14:46:54.976Z,15.35
2023-02-09T14:49:23.090Z,16.48
2023-02-09T14:51:59.055Z,16.08
2023-02-09T14:54:29.608Z,24.83
2023-02-09T14:56:58.855Z,21.37
2023-02-09T14:59:25.605Z,20.63
2023-02-09T15:01:54.003Z,19.17
2023-02-09T15:04:21.236Z,18.10
2023-02-09T15:06:53.598Z,16.90
2023-02-09T15:09:29.674Z,18.63
2023-02-09T15:12:05.818Z,18.27
2023-02-09T15:14:45.937Z,17.77
2023-02-09T15:17:19.899Z,18.52
2023-02-09T15:19:47.792Z,20.40
2023-02-09T15:22:16.267Z,20.40
2023-02-09T15:24:44.450Z,18.98
2023-02-09T15:27:25.622Z,18.60
2023-02-09T15:29:53.674Z,17.65
2023-02-09T15:32:21.766Z,18.15
2023-02-09T15:34:48.896Z,16.60
2023-02-09T15:37:23.257Z,16.38
2023-02-09T15:39:53.472Z,18.83
2023-02-09T15:42:39.385Z,19.83
2023-02-09T15:45:40.003Z,23.88
2023-02-09T15:48:07.725Z,22.90
2023-02-09T15:50:38.235Z,23.58
2023-02-09T15:53:10.664Z,21.58
2023-02-09T15:55:38.253Z,22.63
2023-02-09T15:58:19.634Z,26.70
2023-02-09T16:01:03.591Z,25.67
2023-02-09T16:03:31.839Z,25.23
2023-02-09T16:06:01.427Z,23.83
2023-02-09T16:08:33.175Z,23.77
2023-02-09T16:11:01.782Z,23.90
2023-02-09T16:13:28.792Z,25.60
2023-02-09T16:16:00.289Z,25.30
2023-02-09T16:18:34.790Z,19.45
2023-02-09T16:21:02.350Z,18.67
2023-02-09T16:23:36.665Z,19.45
2023-02-09T16:26:05.432Z,23.47
2023-02-09T16:28:32.299Z,26.98
2023-02-09T16:30:59.223Z,30.90
2023-02-09T16:33:44.341Z,34.70
2023-02-09T16:36:16.956Z,36.92
2023-02-09T16:38:44.371Z,29.73
2023-02-09T16:41:32.255Z,26.63
2023-02-09T16:44:00.229Z,24.95
2023-02-09T16:46:30.200Z,22.80
2023-02-09T16:48:58.382Z,23.15
2023-02-09T16:51:25.178Z,24.10
2023-02-09T16:53:52.557Z,25.35
2023-02-09T16:56:19.378Z,27.25
2023-02-09T16:58:48.389Z,24.60
2023-02-09T17:01:20.970Z,31.15
2023-02-09T17:03:50.596Z,28.87
2023-02-09T17:06:20.528Z,29.83
2023-02-09T17:08:47.312Z,27.05
2023-02-09T17:11:22.993Z,24.40
2023-02-09T17:13:50.193Z,25.50
2023-02-09T17:16:21.004Z,25.93
2023-02-09T17:18:53.930Z,24.45
2023-02-09T17:21:26.847Z,25.50
2023-02-09T17:23:54.624Z,27.88
2023-02-09T17:26:21.788Z,27.40
2023-02-09T17:28:48.475Z,24.73
2023-02-09T17:31:24.740Z,24.70
2023-02-09T17:33:54.198Z,25.33
2023-02-09T17:36:27.612Z,24.60
2023-02-09T17:38:57.335Z,25.55
2023-02-09T17:41:36.914Z,24.73
2023-02-09T17:44:35.366Z,24.80
2023-02-09T17:47:14.101Z,27.58
2023-02-09T17:49:41.078Z,24.77
2023-02-09T17:52:16.320Z,23.55
2023-02-09T17:54:42.971Z,22.30
2023-02-09T17:57:18.083Z,22.17
2023-02-09T17:59:46.084Z,23.08
2023-02-09T18:02:19.802Z,22.55
2023-02-09T18:04:46.932Z,25.98
2023-02-09T18:07:20.024Z,25.87
2023-02-09T18:09:46.874Z,25.50
2023-02-09T18:12:22.608Z,24.75
2023-02-09T18:14:49.461Z,24.58
2023-02-09T18:17:16.614Z,25.95
2023-02-09T18:19:43.540Z,32.13
2023-02-09T18:22:13.884Z,30.30
2023-02-09T18:24:44.856Z,27.40
2023-02-09T18:27:19.172Z,39.25
2023-02-09T18:29:46.093Z,31.05
2023-02-09T18:32:16.010Z,28.23
2023-02-09T18:34:42.829Z,30.00
2023-02-09T18:37:22.354Z,28.13
2023-02-09T18:39:49.297Z,27.58
2023-02-09T18:42:16.720Z,25.88
2023-02-09T18:44:43.707Z,24.97
2023-02-09T18:47:11.270Z,27.30
2023-02-09T18:49:38.491Z,27.58
2023-02-09T18:52:06.091Z,27.30
2023-02-09T18:54:33.874Z,26.05
2023-02-09T18:57:00.787Z,28.10
2023-02-09T18:59:31.876Z,27.63
2023-02-09T19:01:59.560Z,34.28
2023-02-09T19:04:26.748Z,35.83
2023-02-09T19:06:53.493Z,41.20
2023-02-09T19:09:20.286Z,31.87
2023-02-09T19:11:47.245Z,35.13
2023-02-09T19:14:33.972Z,31.58
2023-02-09T19:17:00.700Z,26.73
2023-02-09T19:19:27.473Z,26.63
2023-02-09T19:21:54.470Z,26.37
2023-02-09T19:24:21.465Z,27.90
2023-02-09T19:26:48.137Z,28.27
2023-02-09T19:29:14.982Z,26.73
2023-02-09T19:31:41.794Z,28.73
2023-02-09T19:34:25.115Z,26.43
2023-02-09T19:36:52.045Z,27.00
2023-02-09T19:39:19.928Z,28.65
2023-02-09T19:41:48.960Z,29.02
2023-02-09T19:44:15.819Z,28.25
2023-02-09T19:46:43.670Z,27.57
2023-02-09T19:49:10.743Z,27.60
2023-02-09T19:51:38.005Z,26.17
2023-02-09T19:54:05.150Z,24.90
2023-02-09T19:56:32.212Z,23.67
2023-02-09T19:58:59.166Z,23.03
2023-02-09T20:01:27.093Z,21.23
2023-02-09T20:03:53.947Z,23.00
2023-02-09T20:06:20.796Z,22.75
2023-02-09T20:08:48.068Z,24.33
2023-02-09T20:11:19.829Z,24.93
2023-02-09T20:13:51.718Z,22.80
2023-02-09T20:16:22.507Z,23.48
2023-02-09T20:18:49.657Z,23.58
2023-02-09T20:21:18.095Z,22.55
2023-02-09T20:23:46.686Z,22.77
2023-02-09T20:26:20.998Z,21.92
2023-02-09T20:28:48.902Z,21.77
2023-02-09T20:31:24.641Z,22.25
2023-02-09T20:33:51.716Z,27.25
2023-02-09T20:36:18.629Z,28.40
2023-02-09T20:38:45.572Z,29.77
2023-02-09T20:41:17.258Z,35.95
2023-02-09T20:44:03.838Z,28.73
2023-02-09T20:46:43.990Z,27.80
2023-02-09T20:49:12.705Z,26.90
2023-02-09T20:51:39.635Z,24.98
2023-02-09T20:54:06.927Z,21.48
2023-02-09T20:56:34.046Z,20.77
2023-02-09T20:59:01.136Z,20.95
2023-02-09T21:01:28.413Z,21.83
2023-02-09T21:03:58.930Z,21.73
2023-02-09T21:06:27.053Z,21.70
2023-02-09T21:08:53.763Z,22.35
2023-02-09T21:11:20.577Z,20.88
2023-02-09T21:13:47.780Z,22.03
2023-02-09T21:16:17.746Z,20.55
2023-02-09T21:18:51.676Z,19.73
2023-02-09T21:21:19.105Z,18.58
2023-02-09T21:23:46.512Z,17.88
2023-02-09T21:26:16.432Z,18.07
2023-02-09T21:28:44.148Z,17.55
2023-02-09T21:31:12.802Z,17.33
2023-02-09T21:33:39.979Z,17.40
2023-02-09T21:36:07.639Z,16.55
2023-02-09T21:38:36.961Z,14.97
2023-02-09T21:41:09.168Z,14.05
2023-02-09T21:43:35.997Z,13.77
2023-02-09T21:46:02.741Z,14.35
2023-02-09T21:48:29.441Z,15.88
2023-02-09T21:50:56.455Z,15.37
2023-02-09T21:53:23.218Z,15.05
2023-02-09T21:55:49.914Z,15.07
2023-02-09T21:58:16.592Z,15.40
2023-02-09T22:00:43.355Z,14.00
2023-02-09T22:03:10.071Z,14.43
2023-02-09T22:05:36.808Z,14.82
2023-02-09T22:08:03.657Z,14.65
2023-02-09T22:10:30.322Z,15.20
2023-02-09T22:12:57.131Z,14.35
2023-02-09T22:15:23.803Z,13.67
2023-02-09T22:17:50.896Z,14.20
2023-02-09T22:20:17.727Z,12.70
2023-02-09T22:22:45.920Z,12.98
2023-02-09T22:25:12.960Z,12.43
2023-02-09T22:27:39.876Z,13.20
2023-02-09T22:30:06.954Z,13.35
2023-02-09T22:32:33.893Z,12.95
2023-02-09T22:35:00.750Z,12.65
2023-02-09T22:37:27.651Z,13.05
2023-02-09T22:39:54.387Z,11.50
2023-02-09T22:42:21.207Z,12.15
2023-02-09T22:44:48.039Z,9.77
2023-02-09T22:47:14.726Z,9.77
2023-02-09T22:49:45.094Z,8.73
2023-02-09T22:52:11.960Z,12.47
2023-02-09T22:54:38.794Z,12.98
2023-02-09T22:57:05.953Z,12.65
2023-02-09T22:59:32.734Z,12.82
2023-02-09T23:01:59.479Z,12.23
2023-02-09T23:04:26.302Z,12.87
2023-02-09T23:06:53.029Z,12.85
2023-02-09T23:09:19.797Z,12.38
2023-02-09T23:11:46.478Z,12.20
2023-02-09T23:14:13.672Z,12.23
2023-02-09T23:16:41.897Z,11.80
2023-02-09T23:19:13.143Z,12.45
2023-02-09T23:21:43.171Z,11.75
2023-02-09T23:24:11.522Z,11.70
2023-02-09T23:26:38.678Z,11.65
2023-02-09T23:29:08.474Z,12.73
2023-02-09T23:31:35.494Z,12.63
2023-02-09T23:34:02.723Z,12.82
2023-02-09T23:36:31.809Z,11.27
2023-02-09T23:39:01.784Z,12.00
2023-02-09T23:41:29.182Z,13.10
2023-02-09T23:43:56.226Z,14.40
2023-02-09T23:46:27.944Z,13.07
2023-02-09T23:48:55.642Z,12.18
2023-02-09T23:51:26.577Z,12.15
2023-02-09T23:53:55.059Z,12.20
2023-02-09T23:56:22.361Z,11.23
2023-02-09T23:58:51.037Z,12.25
